Time;durP1;ratioP1;P1;durP2;ratioP2;P2;SDS_P1;SDS_P2;PMS_P1;PMS_P2;Temp;Humidity;BMP_temperature;BMP_pressure;BME280_temperature;BME280_humidity;BME280_pressure;Samples;Min_cycle;Max_cycle;Signal;HPM_P1;HPM_P2
2022/08/17 00:07:58;;;;;;;10.7;15.3;;;;;;;18.9;100;98020;;;;
2022/08/17 00:18:58;;;;;;;10.7;15.3;;;;;;;18.8;100;98010;;;;
2022/08/17 00:28:59;;;;;;;10.7;15.3;;;;;;;18.9;100;98020;;;;
2022/08/17 00:39:58;;;;;;;11.7;15.8;;;;;;;18.9;100;98020;;;;
2022/08/17 00:50:58;;;;;;;11.7;15.8;;;;;;;18.9;100;98030;;;;
2022/08/17 01:01:00;;;;;;;11.7;15.8;;;;;;;18.8;100;98030;;;;
2022/08/17 01:11:00;;;;;;;10.7;15;;;;;;;18.6;100;98030;;;;
2022/08/17 01:21:58;;;;;;;10.7;15;;;;;;;18.5;100;98020;;;;
2022/08/17 01:31:58;;;;;;;10.7;15;;;;;;;18.3;100;98030;;;;
2022/08/17 01:41:58;;;;;;;10.6;16.2;;;;;;;18.2;100;98030;;;;
2022/08/17 01:52:58;;;;;;;10.6;16.2;;;;;;;18.1;100;98030;;;;
2022/08/17 02:02:58;;;;;;;10.6;16.2;;;;;;;18.1;100;98030;;;;
2022/08/17 02:12:58;;;;;;;11;14.4;;;;;;;18.1;100;98030;;;;
2022/08/17 02:23:58;;;;;;;11;14.4;;;;;;;18.1;100;98040;;;;
2022/08/17 02:33:58;;;;;;;11;14.4;;;;;;;18;100;98050;;;;
2022/08/17 02:43:58;;;;;;;11.1;13.7;;;;;;;18;100;98050;;;;
2022/08/17 02:54:58;;;;;;;11.1;13.7;;;;;;;17.9;100;98050;;;;
2022/08/17 03:05:58;;;;;;;10.9;14.9;;;;;;;17.8;100;98050;;;;
2022/08/17 03:15:58;;;;;;;10.9;14.9;;;;;;;17.6;100;98060;;;;
2022/08/17 03:25:58;;;;;;;10.9;14.9;;;;;;;17.6;100;98070;;;;
2022/08/17 03:36:58;;;;;;;10;13.1;;;;;;;17.6;100;98070;;;;
2022/08/17 03:57:59;;;;;;;10;13.1;;;;;;;17.8;100;98070;;;;
2022/08/17 04:07:58;;;;;;;10.7;15.1;;;;;;;17.9;100;98090;;;;
2022/08/17 04:18:58;;;;;;;10.7;15.1;;;;;;;18.2;100;98100;;;;
2022/08/17 04:28:58;;;;;;;10.7;15.1;;;;;;;18.5;100;98110;;;;
2022/08/17 04:38:58;;;;;;;11;14.6;;;;;;;18.7;100;98100;;;;
2022/08/17 04:50:01;;;;;;;11;14.6;;;;;;;19.1;100;98110;;;;
2022/08/17 05:00:58;;;;;;;11;14.6;;;;;;;19.5;100;98110;;;;
2022/08/17 05:10:59;;;;;;;9.7;13;;;;;;;19.9;100;98110;;;;
2022/08/17 05:21:58;;;;;;;9.7;13;;;;;;;20.2;100;98120;;;;
2022/08/17 05:31:58;;;;;;;9.7;13;;;;;;;20.5;100;98120;;;;
2022/08/17 05:42:58;;;;;;;12;16;;;;;;;20.8;100;98140;;;;
2022/08/17 05:53:58;;;;;;;12;16;;;;;;;21.1;100;98140;;;;
2022/08/17 06:04:58;;;;;;;12;16;;;;;;;21.3;100;98150;;;;
2022/08/17 06:15:58;;;;;;;13.2;18.9;;;;;;;21.8;100;98150;;;;
2022/08/17 06:25:58;;;;;;;13.2;18.9;;;;;;;22.5;100;98150;;;;
2022/08/17 06:36:59;;;;;;;11.8;15.7;;;;;;;22.9;100;98160;;;;
2022/08/17 06:47:58;;;;;;;11.8;15.7;;;;;;;23.3;100;98140;;;;
2022/08/17 06:57:58;;;;;;;11.8;15.7;;;;;;;23.6;100;98150;;;;
2022/08/17 07:08:02;;;;;;;11.6;15.1;;;;;;;23.5;100;98160;;;;
2022/08/17 07:18:58;;;;;;;11.6;15.1;;;;;;;23.5;100;98150;;;;
2022/08/17 07:28:58;;;;;;;11.6;15.1;;;;;;;23.7;100;98150;;;;
2022/08/17 07:38:58;;;;;;;11.7;15.3;;;;;;;24.1;100;98160;;;;
2022/08/17 07:49:58;;;;;;;11.7;15.3;;;;;;;24.6;100;98160;;;;
2022/08/17 07:59:58;;;;;;;11.7;15.3;;;;;;;25;100;98160;;;;
2022/08/17 08:10:58;;;;;;;12.2;16.2;;;;;;;25.9;100;98170;;;;
2022/08/17 08:20:58;;;;;;;12.2;16.2;;;;;;;26.3;100;98170;;;;
2022/08/17 08:31:58;;;;;;;12.2;16.2;;;;;;;26.7;100;98170;;;;
2022/08/17 08:41:58;;;;;;;12.8;16.8;;;;;;;27;100;98160;;;;
2022/08/17 08:52:59;;;;;;;12.8;16.8;;;;;;;26.7;100;98160;;;;
2022/08/17 09:03:58;;;;;;;12.8;16.8;;;;;;;26.8;100;98160;;;;
2022/08/17 09:13:58;;;;;;;11.5;16.2;;;;;;;27.1;100;98160;;;;
2022/08/17 09:24:59;;;;;;;11.5;16.2;;;;;;;27.4;100;98160;;;;
2022/08/17 09:35:00;;;;;;;11.5;16.2;;;;;;;27.9;100;98150;;;;
2022/08/17 09:44:58;;;;;;;11.6;16.3;;;;;;;27.9;100;98150;;;;
2022/08/17 09:54:58;;;;;;;11.6;16.3;;;;;;;28.3;100;98160;;;;
2022/08/17 10:05:58;;;;;;;11.6;16.3;;;;;;;29.2;100;98160;;;;
2022/08/17 10:15:58;;;;;;;10.6;17.6;;;;;;;29.3;100;98150;;;;
2022/08/17 10:26:14;;;;;;;10.6;17.6;;;;;;;29.5;100;98160;;;;
2022/08/17 10:36:00;;;;;;;10.6;17.6;;;;;;;29.9;100;98150;;;;
2022/08/17 10:47:00;;;;;;;10.4;14.9;;;;;;;29.7;100;98160;;;;
2022/08/17 10:56:58;;;;;;;10.4;14.9;;;;;;;29.3;100;98140;;;;
2022/08/17 11:08:00;;;;;;;10.1;14.6;;;;;;;30.3;100;98140;;;;
2022/08/17 11:18:00;;;;;;;10.1;14.6;;;;;;;30;100;98130;;;;
2022/08/17 11:27:58;;;;;;;10.1;14.6;;;;;;;30.6;100;98130;;;;
2022/08/17 11:38:58;;;;;;;10.3;14.8;;;;;;;30.8;100;98140;;;;
2022/08/17 11:59:58;;;;;;;10.3;14.8;;;;;;;30.5;99.3;98130;;;;
2022/08/17 12:09:58;;;;;;;10.3;15.6;;;;;;;30.8;94.4;98120;;;;
2022/08/17 12:20:59;;;;;;;10.3;15.6;;;;;;;30.8;97.3;98130;;;;
2022/08/17 12:30:58;;;;;;;10.3;15.6;;;;;;;30.3;98.8;98120;;;;
2022/08/17 12:41:59;;;;;;;9.6;14.3;;;;;;;30.2;95.5;98130;;;;
2022/08/17 12:51:58;;;;;;;9.6;14.3;;;;;;;30.4;93.8;98120;;;;
2022/08/17 13:01:58;;;;;;;9.6;14.3;;;;;;;30.9;94.9;98120;;;;
2022/08/17 13:13:03;;;;;;;7.7;11.9;;;;;;;31.1;93.7;98120;;;;
2022/08/17 13:22:59;;;;;;;7.7;11.9;;;;;;;31;88.2;98120;;;;
2022/08/17 13:33:59;;;;;;;7.7;11.9;;;;;;;31.4;90.3;98100;;;;
2022/08/17 13:43:59;;;;;;;7.1;10;;;;;;;31.4;89.9;98100;;;;
2022/08/17 13:54:58;;;;;;;7.1;10;;;;;;;31.8;85.5;98100;;;;
2022/08/17 14:05:58;;;;;;;7.1;10;;;;;;;31.6;85.8;98110;;;;
2022/08/17 14:16:58;;;;;;;6.8;10.5;;;;;;;31.9;82.9;98120;;;;
2022/08/17 14:27:58;;;;;;;6.8;10.5;;;;;;;31.8;84.6;98110;;;;
2022/08/17 14:38:58;;;;;;;7.4;11.8;;;;;;;31.4;80.7;98100;;;;
2022/08/17 14:48:58;;;;;;;7.4;11.8;;;;;;;30.9;81;98110;;;;
2022/08/17 14:58:58;;;;;;;7.4;11.8;;;;;;;30.4;82.8;98120;;;;
2022/08/17 15:09:59;;;;;;;6.4;11;;;;;;;31.3;80.4;98110;;;;
2022/08/17 15:20:59;;;;;;;6.4;11;;;;;;;32.2;77.8;98100;;;;
2022/08/17 15:30:59;;;;;;;6.4;11;;;;;;;34.5;67.7;98120;;;;
2022/08/17 15:40:58;;;;;;;6.3;10.3;;;;;;;36.2;62.8;98120;;;;
2022/08/17 15:51:58;;;;;;;6.3;10.3;;;;;;;37.4;59.6;98110;;;;
2022/08/17 16:01:59;;;;;;;6.3;10.3;;;;;;;37;60.3;98110;;;;
2022/08/17 16:12:58;;;;;;;6.8;11.9;;;;;;;36.7;59;98110;;;;
2022/08/17 16:22:58;;;;;;;6.8;11.9;;;;;;;35.2;62.8;98110;;;;
2022/08/17 16:33:59;;;;;;;6.8;11.9;;;;;;;31.1;87.4;98110;;;;
2022/08/17 16:43:58;;;;;;;7;9.1;;;;;;;29.1;100;98120;;;;
2022/08/17 16:54:58;;;;;;;7;9.1;;;;;;;27.7;100;98130;;;;
2022/08/17 17:05:01;;;;;;;7;9.1;;;;;;;26.8;100;98130;;;;
2022/08/17 17:15:00;;;;;;;6.6;10.9;;;;;;;26.5;100;98140;;;;
2022/08/17 17:25:58;;;;;;;6.6;10.9;;;;;;;26.1;100;98150;;;;
2022/08/17 17:35:58;;;;;;;6.6;10.9;;;;;;;25.7;100;98150;;;;
2022/08/17 17:46:59;;;;;;;7.9;14.6;;;;;;;25.7;100;98160;;;;
2022/08/17 17:57:58;;;;;;;7.9;14.6;;;;;;;25.4;100;98180;;;;
2022/08/17 18:08:58;;;;;;;8.3;10.6;;;;;;;25.1;100;98190;;;;
2022/08/17 18:18:58;;;;;;;8.3;10.6;;;;;;;24.8;100;98190;;;;
2022/08/17 18:29:59;;;;;;;8.3;10.6;;;;;;;24.5;100;98190;;;;
2022/08/17 18:40:59;;;;;;;14.4;18.7;;;;;;;24.1;100;98190;;;;
2022/08/17 18:51:58;;;;;;;14.4;18.7;;;;;;;23.7;100;98190;;;;
2022/08/17 19:02:59;;;;;;;14.4;18.7;;;;;;;23.5;100;98190;;;;
2022/08/17 19:13:59;;;;;;;11.2;14.2;;;;;;;23.3;100;98210;;;;
2022/08/17 19:23:58;;;;;;;11.2;14.2;;;;;;;23;100;98210;;;;
2022/08/17 19:33:59;;;;;;;11.2;14.2;;;;;;;22.9;100;98210;;;;
2022/08/17 19:44:59;;;;;;;12.9;17.5;;;;;;;22.6;100;98230;;;;
2022/08/17 19:55:59;;;;;;;12.9;17.5;;;;;;;22.3;100;98220;;;;
2022/08/17 20:05:59;;;;;;;12.9;17.5;;;;;;;22.1;100;98220;;;;
2022/08/17 20:15:59;;;;;;;10.9;14.1;;;;;;;21.9;100;98220;;;;
2022/08/17 20:26:59;;;;;;;10.9;14.1;;;;;;;21.6;100;98220;;;;
2022/08/17 20:38:00;;;;;;;10.9;14.1;;;;;;;21.2;100;98230;;;;
2022/08/17 20:48:59;;;;;;;11.5;14.7;;;;;;;21.1;100;98220;;;;
2022/08/17 20:58:59;;;;;;;11.5;14.7;;;;;;;21;100;98210;;;;
2022/08/17 21:09:59;;;;;;;11;12.8;;;;;;;20.8;100;98230;;;;
2022/08/17 21:19:59;;;;;;;11;12.8;;;;;;;20.7;100;98230;;;;
2022/08/17 21:31:01;;;;;;;11;12.8;;;;;;;20.7;100;98230;;;;
2022/08/17 21:41:59;;;;;;;13.8;16.5;;;;;;;20.8;100;98230;;;;
2022/08/17 21:52:00;;;;;;;13.8;16.5;;;;;;;20.7;100;98230;;;;
2022/08/17 22:01:59;;;;;;;13.8;16.5;;;;;;;20.8;100;98210;;;;
2022/08/17 22:11:59;;;;;;;13.4;15.5;;;;;;;20.8;100;98210;;;;
2022/08/17 22:24:02;;;;;;;13.4;15.5;;;;;;;20.8;100;98190;;;;
2022/08/17 22:33:59;;;;;;;13.4;15.5;;;;;;;20.6;100;98200;;;;
2022/08/17 22:44:59;;;;;;;12.9;17.1;;;;;;;20.3;100;98210;;;;
2022/08/17 23:06:00;;;;;;;12.9;17.1;;;;;;;19.9;100;98190;;;;
2022/08/17 23:15:59;;;;;;;14;17;;;;;;;19.6;100;98200;;;;
2022/08/17 23:25:59;;;;;;;14;17;;;;;;;19.6;100;98210;;;;
2022/08/17 23:37:01;;;;;;;14;17;;;;;;;19.4;100;98210;;;;
2022/08/17 23:46:59;;;;;;;14.3;16.3;;;;;;;19.3;100;98210;;;;
2022/08/17 23:56:59;;;;;;;14.3;16.3;;;;;;;19.2;100;98220;;;;
